KOTM/OTM METAR and TAF weather

Enter ICAO airport designator
Station Type Date Time Source
KOTM METAR 2019/12/14 16:53 UTC NOAA

KOTM 141653Z AUTO 31015KT 10SM FEW018 OVC026 M05/M09 A2991 RMK AO2 SLP138 T10501089


Station Type Date Time Source
KOTM Decoded METAR 2019/12/14 16:53 UTC NOAA

OTTUMWA INDUSTRIAL AIRPORT, IA, United States (KOTM) 41-06N 092-27W 256M
Dec 14, 2019 - 11:53 AM EST / 2019.12.14 1653 UTC
Wind: from the NW (310 degrees) at 17 MPH (15 KT):0
Visibility: 10 mile(s):0
Sky conditions: overcast
Temperature: 23.0 F (-5.0 C)
Windchill: 8 F (-13 C):1
Dew Point: 16.0 F (-8.9 C)
Relative Humidity: 74%
Pressure (altimeter): 29.91 in. Hg (1012 hPa)
ob: KOTM 141653Z AUTO 31015KT 10SM FEW018 OVC026 M05/M09 A2991 RMK AO2 SLP138 T10501089
cycle: 17

Station Type Date Time Source
KOTM TAF 2019/12/14 14:40 UTC NOAA

TAF
AMD KOTM 141338Z 1414/1512 32014G22KT P6SM BKN016
FM141500 32012KT P6SM BKN020
FM141600 32012KT P6SM BKN060
FM142300 33007KT P6SM SCT040
FM150400 34006KT P6SM BKN150

Example: see airport list